sensor_id;sensor_type;location;lat;lon;timestamp;temperature;humidity
47310;DHT22;33046;52.270;6.832;2023-08-21T05:18:21;19.90;98.40
47310;DHT22;33046;52.270;6.832;2023-08-21T05:20:28;19.90;98.70
47310;DHT22;33046;52.270;6.832;2023-08-21T05:22:36;20.00;98.90
47310;DHT22;33046;52.270;6.832;2023-08-21T05:24:43;20.10;98.90
47310;DHT22;33046;52.270;6.832;2023-08-21T05:26:50;20.00;98.80
47310;DHT22;33046;52.270;6.832;2023-08-21T05:28:57;20.00;98.90
47310;DHT22;33046;52.270;6.832;2023-08-21T05:31:04;20.10;99.00
47310;DHT22;33046;52.270;6.832;2023-08-21T05:33:25;20.10;99.00
47310;DHT22;33046;52.270;6.832;2023-08-21T05:35:33;20.20;99.00
47310;DHT22;33046;52.270;6.832;2023-08-21T05:37:40;20.20;98.90
47310;DHT22;33046;52.270;6.832;2023-08-21T05:39:47;20.20;99.00
47310;DHT22;33046;52.270;6.832;2023-08-21T05:41:54;20.30;99.10
47310;DHT22;33046;52.270;6.832;2023-08-21T05:44:01;20.30;99.30
47310;DHT22;33046;52.270;6.832;2023-08-21T05:46:09;20.30;99.30
47310;DHT22;33046;52.270;6.832;2023-08-21T05:48:17;20.30;99.50
47310;DHT22;33046;52.270;6.832;2023-08-21T05:50:25;20.40;99.50
47310;DHT22;33046;52.270;6.832;2023-08-21T05:52:34;20.40;99.40
47310;DHT22;33046;52.270;6.832;2023-08-21T05:54:41;20.40;99.30
47310;DHT22;33046;52.270;6.832;2023-08-21T05:56:48;20.50;99.40
47310;DHT22;33046;52.270;6.832;2023-08-21T05:58:55;20.60;99.30
47310;DHT22;33046;52.270;6.832;2023-08-21T06:01:04;20.60;99.20
47310;DHT22;33046;52.270;6.832;2023-08-21T06:03:13;20.70;99.00
47310;DHT22;33046;52.270;6.832;2023-08-21T06:05:36;20.90;98.80
47310;DHT22;33046;52.270;6.832;2023-08-21T06:07:43;20.90;98.80
47310;DHT22;33046;52.270;6.832;2023-08-21T06:09:50;21.00;98.70
47310;DHT22;33046;52.270;6.832;2023-08-21T06:11:57;21.00;98.70
47310;DHT22;33046;52.270;6.832;2023-08-21T06:14:04;21.10;98.60
47310;DHT22;33046;52.270;6.832;2023-08-21T06:16:11;21.10;98.60
47310;DHT22;33046;52.270;6.832;2023-08-21T06:18:19;21.20;98.50
47310;DHT22;33046;52.270;6.832;2023-08-21T06:20:26;21.20;98.50
47310;DHT22;33046;52.270;6.832;2023-08-21T06:22:34;21.20;98.50
47310;DHT22;33046;52.270;6.832;2023-08-21T06:24:41;21.30;98.50
47310;DHT22;33046;52.270;6.832;2023-08-21T06:26:52;21.30;98.60
47310;DHT22;33046;52.270;6.832;2023-08-21T06:28:59;21.30;98.50
47310;DHT22;33046;52.270;6.832;2023-08-21T06:31:08;21.30;98.80
47310;DHT22;33046;52.270;6.832;2023-08-21T06:33:17;21.40;98.60
47310;DHT22;33046;52.270;6.832;2023-08-21T06:35:23;21.40;98.50
47310;DHT22;33046;52.270;6.832;2023-08-21T06:37:33;21.50;98.30
47310;DHT22;33046;52.270;6.832;2023-08-21T06:39:40;21.60;98.10
47310;DHT22;33046;52.270;6.832;2023-08-21T06:41:47;21.60;98.10
47310;DHT22;33046;52.270;6.832;2023-08-21T06:43:58;21.70;98.30
47310;DHT22;33046;52.270;6.832;2023-08-21T06:46:07;21.70;98.00
47310;DHT22;33046;52.270;6.832;2023-08-21T06:48:14;21.80;97.90
47310;DHT22;33046;52.270;6.832;2023-08-21T06:50:21;21.90;97.80
47310;DHT22;33046;52.270;6.832;2023-08-21T06:52:28;22.00;97.50
47310;DHT22;33046;52.270;6.832;2023-08-21T06:54:36;22.10;97.50
47310;DHT22;33046;52.270;6.832;2023-08-21T06:56:43;22.20;97.30
47310;DHT22;33046;52.270;6.832;2023-08-21T06:58:50;22.20;97.30
47310;DHT22;33046;52.270;6.832;2023-08-21T07:00:57;22.30;97.10
47310;DHT22;33046;52.270;6.832;2023-08-21T07:03:04;22.40;97.30
47310;DHT22;33046;52.270;6.832;2023-08-21T07:05:11;22.50;97.20
47310;DHT22;33046;52.270;6.832;2023-08-21T07:07:18;22.70;96.70
47310;DHT22;33046;52.270;6.832;2023-08-21T07:09:25;22.80;96.60
47310;DHT22;33046;52.270;6.832;2023-08-21T07:11:33;22.70;96.60
47310;DHT22;33046;52.270;6.832;2023-08-21T07:13:40;22.70;96.60
47310;DHT22;33046;52.270;6.832;2023-08-21T07:15:47;22.80;96.50
47310;DHT22;33046;52.270;6.832;2023-08-21T07:17:54;22.80;96.80
47310;DHT22;33046;52.270;6.832;2023-08-21T07:20:01;22.90;97.00
47310;DHT22;33046;52.270;6.832;2023-08-21T07:22:08;22.90;96.70
47310;DHT22;33046;52.270;6.832;2023-08-21T07:24:14;23.00;96.70
47310;DHT22;33046;52.270;6.832;2023-08-21T07:26:21;23.10;96.70
47310;DHT22;33046;52.270;6.832;2023-08-21T07:28:30;23.10;96.60
47310;DHT22;33046;52.270;6.832;2023-08-21T07:30:37;23.20;96.50
47310;DHT22;33046;52.270;6.832;2023-08-21T07:32:44;23.20;96.40
47310;DHT22;33046;52.270;6.832;2023-08-21T07:34:52;23.20;96.30
47310;DHT22;33046;52.270;6.832;2023-08-21T07:36:59;23.30;96.50
47310;DHT22;33046;52.270;6.832;2023-08-21T07:39:05;23.40;96.10
47310;DHT22;33046;52.270;6.832;2023-08-21T07:41:13;23.40;96.00
47310;DHT22;33046;52.270;6.832;2023-08-21T07:43:20;23.50;96.40
47310;DHT22;33046;52.270;6.832;2023-08-21T07:45:28;23.40;96.10
47310;DHT22;33046;52.270;6.832;2023-08-21T07:47:35;23.50;95.80
47310;DHT22;33046;52.270;6.832;2023-08-21T07:49:42;23.60;95.90
47310;DHT22;33046;52.270;6.832;2023-08-21T07:51:49;23.60;96.00
47310;DHT22;33046;52.270;6.832;2023-08-21T07:53:56;23.60;95.60
47310;DHT22;33046;52.270;6.832;2023-08-21T07:56:05;23.60;95.70
47310;DHT22;33046;52.270;6.832;2023-08-21T07:58:12;23.60;96.10
47310;DHT22;33046;52.270;6.832;2023-08-21T08:00:19;23.60;95.50
47310;DHT22;33046;52.270;6.832;2023-08-21T08:02:27;23.60;95.20
47310;DHT22;33046;52.270;6.832;2023-08-21T08:04:34;23.70;95.50
47310;DHT22;33046;52.270;6.832;2023-08-21T08:06:41;23.70;95.20
47310;DHT22;33046;52.270;6.832;2023-08-21T08:08:48;23.80;95.10
47310;DHT22;33046;52.270;6.832;2023-08-21T08:10:55;23.80;95.00
47310;DHT22;33046;52.270;6.832;2023-08-21T08:13:02;23.80;95.00
47310;DHT22;33046;52.270;6.832;2023-08-21T08:15:09;23.80;95.00
47310;DHT22;33046;52.270;6.832;2023-08-21T08:17:16;23.80;94.60
47310;DHT22;33046;52.270;6.832;2023-08-21T08:19:24;23.90;94.90
47310;DHT22;33046;52.270;6.832;2023-08-21T08:21:31;23.80;95.00
47310;DHT22;33046;52.270;6.832;2023-08-21T08:23:38;23.90;95.10
47310;DHT22;33046;52.270;6.832;2023-08-21T08:25:45;23.90;93.90
47310;DHT22;33046;52.270;6.832;2023-08-21T08:27:52;24.00;93.10
47310;DHT22;33046;52.270;6.832;2023-08-21T08:29:59;24.10;92.80
47310;DHT22;33046;52.270;6.832;2023-08-21T08:32:06;24.10;93.10
47310;DHT22;33046;52.270;6.832;2023-08-21T08:34:13;24.10;92.80
47310;DHT22;33046;52.270;6.832;2023-08-21T08:36:21;24.10;93.40
47310;DHT22;33046;52.270;6.832;2023-08-21T08:38:28;24.20;93.00
47310;DHT22;33046;52.270;6.832;2023-08-21T08:40:38;24.20;93.50
47310;DHT22;33046;52.270;6.832;2023-08-21T08:42:47;24.20;93.20
47310;DHT22;33046;52.270;6.832;2023-08-21T08:44:54;24.20;92.90
47310;DHT22;33046;52.270;6.832;2023-08-21T08:47:03;24.30;92.80
47310;DHT22;33046;52.270;6.832;2023-08-21T08:49:10;24.40;93.50
47310;DHT22;33046;52.270;6.832;2023-08-21T08:51:17;24.40;92.90
47310;DHT22;33046;52.270;6.832;2023-08-21T08:53:32;24.50;92.10
47310;DHT22;33046;52.270;6.832;2023-08-21T08:55:39;24.60;92.20
47310;DHT22;33046;52.270;6.832;2023-08-21T08:57:46;24.70;92.00
47310;DHT22;33046;52.270;6.832;2023-08-21T08:59:53;24.80;92.40
47310;DHT22;33046;52.270;6.832;2023-08-21T09:02:00;24.90;92.00
47310;DHT22;33046;52.270;6.832;2023-08-21T09:04:07;25.00;91.70
47310;DHT22;33046;52.270;6.832;2023-08-21T09:06:14;25.00;92.80
47310;DHT22;33046;52.270;6.832;2023-08-21T09:08:21;25.00;91.90
47310;DHT22;33046;52.270;6.832;2023-08-21T09:10:29;25.00;91.80
47310;DHT22;33046;52.270;6.832;2023-08-21T09:12:37;25.00;91.50
47310;DHT22;33046;52.270;6.832;2023-08-21T09:14:46;25.00;91.20
47310;DHT22;33046;52.270;6.832;2023-08-21T09:17:00;25.10;91.70
47310;DHT22;33046;52.270;6.832;2023-08-21T09:19:07;25.10;91.00
47310;DHT22;33046;52.270;6.832;2023-08-21T09:21:16;25.20;91.20
47310;DHT22;33046;52.270;6.832;2023-08-21T09:23:23;25.20;91.40
47310;DHT22;33046;52.270;6.832;2023-08-21T09:25:35;25.30;91.10
47310;DHT22;33046;52.270;6.832;2023-08-21T09:27:41;25.30;90.40
47310;DHT22;33046;52.270;6.832;2023-08-21T09:29:49;25.30;90.10
47310;DHT22;33046;52.270;6.832;2023-08-21T09:31:56;25.40;90.30
47310;DHT22;33046;52.270;6.832;2023-08-21T09:34:04;25.40;90.20
47310;DHT22;33046;52.270;6.832;2023-08-21T09:36:11;25.30;90.20
47310;DHT22;33046;52.270;6.832;2023-08-21T09:38:18;25.30;90.30
47310;DHT22;33046;52.270;6.832;2023-08-21T09:40:25;25.30;90.50
47310;DHT22;33046;52.270;6.832;2023-08-21T09:42:33;25.30;90.40
47310;DHT22;33046;52.270;6.832;2023-08-21T09:44:41;25.30;90.30
47310;DHT22;33046;52.270;6.832;2023-08-21T09:46:49;25.20;90.00
47310;DHT22;33046;52.270;6.832;2023-08-21T09:48:56;25.30;90.40
47310;DHT22;33046;52.270;6.832;2023-08-21T09:51:04;25.30;90.40
47310;DHT22;33046;52.270;6.832;2023-08-21T09:53:11;25.40;90.60
47310;DHT22;33046;52.270;6.832;2023-08-21T09:55:19;25.50;90.60
47310;DHT22;33046;52.270;6.832;2023-08-21T09:57:27;25.60;90.80
47310;DHT22;33046;52.270;6.832;2023-08-21T09:59:36;25.60;90.20
47310;DHT22;33046;52.270;6.832;2023-08-21T10:01:44;25.70;90.70
47310;DHT22;33046;52.270;6.832;2023-08-21T10:03:54;25.70;90.40
47310;DHT22;33046;52.270;6.832;2023-08-21T10:06:03;25.70;90.00
47310;DHT22;33046;52.270;6.832;2023-08-21T10:08:11;25.70;89.30
47310;DHT22;33046;52.270;6.832;2023-08-21T10:10:18;25.80;89.00
47310;DHT22;33046;52.270;6.832;2023-08-21T10:12:26;25.80;89.00
47310;DHT22;33046;52.270;6.832;2023-08-21T10:14:34;25.90;88.80
47310;DHT22;33046;52.270;6.832;2023-08-21T10:16:42;25.90;87.20
47310;DHT22;33046;52.270;6.832;2023-08-21T10:18:50;25.80;87.80
47310;DHT22;33046;52.270;6.832;2023-08-21T10:21:10;25.90;89.70
47310;DHT22;33046;52.270;6.832;2023-08-21T10:23:24;25.90;88.10
47310;DHT22;33046;52.270;6.832;2023-08-21T10:25:31;26.00;88.90
47310;DHT22;33046;52.270;6.832;2023-08-21T10:27:50;26.10;88.50
47310;DHT22;33046;52.270;6.832;2023-08-21T10:29:58;26.00;86.30
47310;DHT22;33046;52.270;6.832;2023-08-21T10:32:05;26.00;85.40
47310;DHT22;33046;52.270;6.832;2023-08-21T10:34:13;26.00;85.90
47310;DHT22;33046;52.270;6.832;2023-08-21T10:36:38;26.00;85.50
47310;DHT22;33046;52.270;6.832;2023-08-21T10:39:00;26.00;85.40
47310;DHT22;33046;52.270;6.832;2023-08-21T10:41:08;26.10;86.30
47310;DHT22;33046;52.270;6.832;2023-08-21T10:43:39;26.10;86.30
47310;DHT22;33046;52.270;6.832;2023-08-21T10:45:55;26.10;86.10
47310;DHT22;33046;52.270;6.832;2023-08-21T10:48:02;26.20;85.40
47310;DHT22;33046;52.270;6.832;2023-08-21T10:50:09;26.20;85.50
47310;DHT22;33046;52.270;6.832;2023-08-21T10:52:20;26.10;84.10
47310;DHT22;33046;52.270;6.832;2023-08-21T10:54:27;26.20;85.00
47310;DHT22;33046;52.270;6.832;2023-08-21T10:56:34;26.20;85.90
47310;DHT22;33046;52.270;6.832;2023-08-21T10:58:41;26.30;85.90
47310;DHT22;33046;52.270;6.832;2023-08-21T11:00:57;26.20;85.10
47310;DHT22;33046;52.270;6.832;2023-08-21T11:03:04;26.30;84.40
47310;DHT22;33046;52.270;6.832;2023-08-21T11:05:12;26.20;83.90
47310;DHT22;33046;52.270;6.832;2023-08-21T11:07:19;26.20;84.40
47310;DHT22;33046;52.270;6.832;2023-08-21T11:09:26;26.20;84.50
47310;DHT22;33046;52.270;6.832;2023-08-21T11:11:35;26.20;85.30
47310;DHT22;33046;52.270;6.832;2023-08-21T11:13:52;26.20;84.90
47310;DHT22;33046;52.270;6.832;2023-08-21T11:16:01;26.30;85.80
47310;DHT22;33046;52.270;6.832;2023-08-21T11:18:08;26.40;85.20
47310;DHT22;33046;52.270;6.832;2023-08-21T11:20:15;26.40;84.00
47310;DHT22;33046;52.270;6.832;2023-08-21T11:22:28;26.40;85.80
47310;DHT22;33046;52.270;6.832;2023-08-21T11:24:44;26.40;84.50
47310;DHT22;33046;52.270;6.832;2023-08-21T11:26:51;26.40;84.30
47310;DHT22;33046;52.270;6.832;2023-08-21T11:28:58;26.50;83.40
47310;DHT22;33046;52.270;6.832;2023-08-21T11:31:06;26.50;83.80
47310;DHT22;33046;52.270;6.832;2023-08-21T11:33:13;26.60;82.90
47310;DHT22;33046;52.270;6.832;2023-08-21T11:35:21;26.60;83.30
47310;DHT22;33046;52.270;6.832;2023-08-21T11:37:27;26.60;82.40
47310;DHT22;33046;52.270;6.832;2023-08-21T11:39:44;26.60;82.30
47310;DHT22;33046;52.270;6.832;2023-08-21T11:41:55;26.70;82.40
47310;DHT22;33046;52.270;6.832;2023-08-21T11:44:02;26.80;82.20
47310;DHT22;33046;52.270;6.832;2023-08-21T11:46:11;26.80;82.30
47310;DHT22;33046;52.270;6.832;2023-08-21T11:48:19;26.90;83.50
47310;DHT22;33046;52.270;6.832;2023-08-21T11:50:27;26.90;83.00
47310;DHT22;33046;52.270;6.832;2023-08-21T11:52:33;27.00;82.40
47310;DHT22;33046;52.270;6.832;2023-08-21T11:54:41;27.10;83.10
47310;DHT22;33046;52.270;6.832;2023-08-21T11:56:48;27.20;83.20
47310;DHT22;33046;52.270;6.832;2023-08-21T11:58:54;27.30;83.70
47310;DHT22;33046;52.270;6.832;2023-08-21T12:01:03;27.30;83.50
47310;DHT22;33046;52.270;6.832;2023-08-21T12:03:17;27.30;81.90
47310;DHT22;33046;52.270;6.832;2023-08-21T12:05:25;27.20;81.70
47310;DHT22;33046;52.270;6.832;2023-08-21T12:07:32;27.20;80.60
47310;DHT22;33046;52.270;6.832;2023-08-21T12:09:39;27.30;81.00
47310;DHT22;33046;52.270;6.832;2023-08-21T12:11:46;27.30;81.70
47310;DHT22;33046;52.270;6.832;2023-08-21T12:13:53;27.30;81.00
47310;DHT22;33046;52.270;6.832;2023-08-21T12:16:00;27.30;81.50
47310;DHT22;33046;52.270;6.832;2023-08-21T12:18:07;27.40;81.10
47310;DHT22;33046;52.270;6.832;2023-08-21T12:20:15;27.40;81.60
47310;DHT22;33046;52.270;6.832;2023-08-21T12:22:22;27.40;77.90
47310;DHT22;33046;52.270;6.832;2023-08-21T12:24:29;27.40;76.30
47310;DHT22;33046;52.270;6.832;2023-08-21T12:26:36;27.40;74.30
47310;DHT22;33046;52.270;6.832;2023-08-21T12:28:46;27.40;73.50
47310;DHT22;33046;52.270;6.832;2023-08-21T12:30:53;27.40;74.10
47310;DHT22;33046;52.270;6.832;2023-08-21T12:33:00;27.40;74.60
47310;DHT22;33046;52.270;6.832;2023-08-21T12:35:12;27.30;74.60
47310;DHT22;33046;52.270;6.832;2023-08-21T12:37:20;27.30;74.10
47310;DHT22;33046;52.270;6.832;2023-08-21T12:39:27;27.20;74.40
47310;DHT22;33046;52.270;6.832;2023-08-21T12:41:34;27.30;75.40
47310;DHT22;33046;52.270;6.832;2023-08-21T12:43:41;27.40;74.90
47310;DHT22;33046;52.270;6.832;2023-08-21T12:45:47;27.50;74.40
47310;DHT22;33046;52.270;6.832;2023-08-21T12:47:54;27.50;74.00
47310;DHT22;33046;52.270;6.832;2023-08-21T12:50:01;27.50;73.40
47310;DHT22;33046;52.270;6.832;2023-08-21T12:52:08;27.50;73.40
47310;DHT22;33046;52.270;6.832;2023-08-21T12:54:16;27.40;76.40
47310;DHT22;33046;52.270;6.832;2023-08-21T12:56:23;27.40;78.70
47310;DHT22;33046;52.270;6.832;2023-08-21T12:58:30;27.50;75.40
47310;DHT22;33046;52.270;6.832;2023-08-21T13:00:37;27.60;75.40
47310;DHT22;33046;52.270;6.832;2023-08-21T13:02:44;27.60;75.50
47310;DHT22;33046;52.270;6.832;2023-08-21T13:04:51;27.60;75.10
47310;DHT22;33046;52.270;6.832;2023-08-21T13:06:57;27.60;78.70
47310;DHT22;33046;52.270;6.832;2023-08-21T13:09:04;27.60;79.00
47310;DHT22;33046;52.270;6.832;2023-08-21T13:11:13;27.60;79.00
47310;DHT22;33046;52.270;6.832;2023-08-21T13:13:19;27.70;75.60
47310;DHT22;33046;52.270;6.832;2023-08-21T13:15:26;27.70;74.80
47310;DHT22;33046;52.270;6.832;2023-08-21T13:17:33;27.70;75.70
47310;DHT22;33046;52.270;6.832;2023-08-21T13:19:40;27.80;76.00
47310;DHT22;33046;52.270;6.832;2023-08-21T13:21:47;27.80;75.30
47310;DHT22;33046;52.270;6.832;2023-08-21T13:23:54;27.80;75.80
47310;DHT22;33046;52.270;6.832;2023-08-21T13:26:01;27.80;75.10
47310;DHT22;33046;52.270;6.832;2023-08-21T13:28:09;27.70;74.50
47310;DHT22;33046;52.270;6.832;2023-08-21T13:30:16;27.70;75.90
47310;DHT22;33046;52.270;6.832;2023-08-21T13:32:23;27.60;76.10
47310;DHT22;33046;52.270;6.832;2023-08-21T13:34:30;27.50;77.40
47310;DHT22;33046;52.270;6.832;2023-08-21T13:36:38;27.40;80.10
47310;DHT22;33046;52.270;6.832;2023-08-21T13:38:45;27.40;79.80
47310;DHT22;33046;52.270;6.832;2023-08-21T13:40:51;27.40;74.40
47310;DHT22;33046;52.270;6.832;2023-08-21T13:42:58;27.40;75.60
47310;DHT22;33046;52.270;6.832;2023-08-21T13:45:10;27.40;74.50
47310;DHT22;33046;52.270;6.832;2023-08-21T13:47:18;27.40;76.00
47310;DHT22;33046;52.270;6.832;2023-08-21T13:49:25;27.40;77.20
47310;DHT22;33046;52.270;6.832;2023-08-21T13:51:32;27.40;79.10
47310;DHT22;33046;52.270;6.832;2023-08-21T13:53:39;27.40;77.00
47310;DHT22;33046;52.270;6.832;2023-08-21T13:55:46;27.40;76.20
47310;DHT22;33046;52.270;6.832;2023-08-21T13:57:52;27.60;77.90
47310;DHT22;33046;52.270;6.832;2023-08-21T13:59:59;27.50;75.70
47310;DHT22;33046;52.270;6.832;2023-08-21T14:02:08;27.60;74.60
47310;DHT22;33046;52.270;6.832;2023-08-21T14:04:14;27.60;75.30
47310;DHT22;33046;52.270;6.832;2023-08-21T14:06:21;27.70;75.40
47310;DHT22;33046;52.270;6.832;2023-08-21T14:08:28;27.70;75.00
47310;DHT22;33046;52.270;6.832;2023-08-21T14:10:35;27.80;75.30
47310;DHT22;33046;52.270;6.832;2023-08-21T14:12:42;27.80;75.30
47310;DHT22;33046;52.270;6.832;2023-08-21T14:14:49;27.90;75.70
47310;DHT22;33046;52.270;6.832;2023-08-21T14:16:56;27.90;75.00
47310;DHT22;33046;52.270;6.832;2023-08-21T14:19:04;27.90;75.20
47310;DHT22;33046;52.270;6.832;2023-08-21T14:21:11;27.90;74.60
47310;DHT22;33046;52.270;6.832;2023-08-21T14:23:18;27.90;75.00
47310;DHT22;33046;52.270;6.832;2023-08-21T14:25:25;28.00;74.50
47310;DHT22;33046;52.270;6.832;2023-08-21T14:27:32;28.00;75.00
47310;DHT22;33046;52.270;6.832;2023-08-21T14:29:39;28.00;75.90
47310;DHT22;33046;52.270;6.832;2023-08-21T14:31:45;28.00;74.40
47310;DHT22;33046;52.270;6.832;2023-08-21T14:33:52;28.10;75.00
47310;DHT22;33046;52.270;6.832;2023-08-21T14:36:01;28.10;74.00
47310;DHT22;33046;52.270;6.832;2023-08-21T14:38:07;28.10;74.10
47310;DHT22;33046;52.270;6.832;2023-08-21T14:40:14;28.20;73.80
47310;DHT22;33046;52.270;6.832;2023-08-21T14:42:21;28.20;73.00
47310;DHT22;33046;52.270;6.832;2023-08-21T14:44:28;28.20;73.80
47310;DHT22;33046;52.270;6.832;2023-08-21T14:46:35;28.20;74.30
47310;DHT22;33046;52.270;6.832;2023-08-21T14:48:48;28.20;74.30
47310;DHT22;33046;52.270;6.832;2023-08-21T14:50:55;28.20;76.50
47310;DHT22;33046;52.270;6.832;2023-08-21T14:53:03;28.10;74.70
47310;DHT22;33046;52.270;6.832;2023-08-21T14:55:10;28.10;73.50
47310;DHT22;33046;52.270;6.832;2023-08-21T14:57:17;28.10;73.20
47310;DHT22;33046;52.270;6.832;2023-08-21T14:59:23;28.10;72.60
47310;DHT22;33046;52.270;6.832;2023-08-21T15:01:30;28.10;72.60
47310;DHT22;33046;52.270;6.832;2023-08-21T15:03:37;28.10;72.70
47310;DHT22;33046;52.270;6.832;2023-08-21T15:05:44;28.20;72.00
47310;DHT22;33046;52.270;6.832;2023-08-21T15:07:51;28.10;72.60
47310;DHT22;33046;52.270;6.832;2023-08-21T15:09:59;28.10;73.30
47310;DHT22;33046;52.270;6.832;2023-08-21T15:12:07;28.10;72.80
47310;DHT22;33046;52.270;6.832;2023-08-21T15:14:14;28.10;73.20
47310;DHT22;33046;52.270;6.832;2023-08-21T15:16:21;28.10;75.00
47310;DHT22;33046;52.270;6.832;2023-08-21T15:18:28;28.20;73.80
47310;DHT22;33046;52.270;6.832;2023-08-21T15:20:35;28.20;73.00
47310;DHT22;33046;52.270;6.832;2023-08-21T15:22:42;28.20;72.80
47310;DHT22;33046;52.270;6.832;2023-08-21T15:24:48;28.30;73.90
47310;DHT22;33046;52.270;6.832;2023-08-21T15:26:57;28.30;73.30
47310;DHT22;33046;52.270;6.832;2023-08-21T15:29:03;28.30;75.00
47310;DHT22;33046;52.270;6.832;2023-08-21T15:31:10;28.30;75.80
47310;DHT22;33046;52.270;6.832;2023-08-21T15:33:17;28.30;73.80
47310;DHT22;33046;52.270;6.832;2023-08-21T15:35:24;28.30;72.70
47310;DHT22;33046;52.270;6.832;2023-08-21T15:37:31;28.20;72.80
47310;DHT22;33046;52.270;6.832;2023-08-21T15:39:38;28.20;72.90
47310;DHT22;33046;52.270;6.832;2023-08-21T15:41:44;28.30;74.50
47310;DHT22;33046;52.270;6.832;2023-08-21T15:43:53;28.30;74.10
47310;DHT22;33046;52.270;6.832;2023-08-21T15:46:02;28.30;71.90
47310;DHT22;33046;52.270;6.832;2023-08-21T15:48:10;28.30;72.50
47310;DHT22;33046;52.270;6.832;2023-08-21T15:50:16;28.40;72.30
47310;DHT22;33046;52.270;6.832;2023-08-21T15:52:23;28.40;73.30
47310;DHT22;33046;52.270;6.832;2023-08-21T15:54:31;28.50;72.70
47310;DHT22;33046;52.270;6.832;2023-08-21T15:56:39;28.50;74.10
47310;DHT22;33046;52.270;6.832;2023-08-21T15:58:46;28.50;73.70
47310;DHT22;33046;52.270;6.832;2023-08-21T16:00:54;28.60;73.20
47310;DHT22;33046;52.270;6.832;2023-08-21T16:03:01;28.60;72.80
47310;DHT22;33046;52.270;6.832;2023-08-21T16:05:08;28.70;71.30
47310;DHT22;33046;52.270;6.832;2023-08-21T16:07:15;28.70;72.10
47310;DHT22;33046;52.270;6.832;2023-08-21T16:09:22;28.70;71.50
47310;DHT22;33046;52.270;6.832;2023-08-21T16:11:29;28.70;71.50
47310;DHT22;33046;52.270;6.832;2023-08-21T16:13:36;28.60;70.80
47310;DHT22;33046;52.270;6.832;2023-08-21T16:15:43;28.70;72.30
47310;DHT22;33046;52.270;6.832;2023-08-21T16:17:51;28.70;71.80
47310;DHT22;33046;52.270;6.832;2023-08-21T16:19:58;28.60;72.80
47310;DHT22;33046;52.270;6.832;2023-08-21T16:22:05;28.60;71.90
47310;DHT22;33046;52.270;6.832;2023-08-21T16:24:12;28.60;72.00
47310;DHT22;33046;52.270;6.832;2023-08-21T16:26:18;28.60;72.10
47310;DHT22;33046;52.270;6.832;2023-08-21T16:28:25;28.60;72.50
47310;DHT22;33046;52.270;6.832;2023-08-21T16:30:32;28.60;71.30
47310;DHT22;33046;52.270;6.832;2023-08-21T16:32:39;28.60;72.20
47310;DHT22;33046;52.270;6.832;2023-08-21T16:34:47;28.60;72.90
47310;DHT22;33046;52.270;6.832;2023-08-21T16:36:54;28.60;72.30
47310;DHT22;33046;52.270;6.832;2023-08-21T16:39:02;28.60;71.60
47310;DHT22;33046;52.270;6.832;2023-08-21T16:41:09;28.60;72.00
47310;DHT22;33046;52.270;6.832;2023-08-21T16:43:17;28.50;72.60
47310;DHT22;33046;52.270;6.832;2023-08-21T16:45:24;28.50;73.00
47310;DHT22;33046;52.270;6.832;2023-08-21T16:47:31;28.40;71.60
47310;DHT22;33046;52.270;6.832;2023-08-21T16:49:37;28.30;70.40
47310;DHT22;33046;52.270;6.832;2023-08-21T16:51:46;28.20;71.00
47310;DHT22;33046;52.270;6.832;2023-08-21T16:53:53;28.10;71.20
47310;DHT22;33046;52.270;6.832;2023-08-21T16:55:59;28.00;72.30
47310;DHT22;33046;52.270;6.832;2023-08-21T16:58:06;28.00;73.10
47310;DHT22;33046;52.270;6.832;2023-08-21T17:00:14;27.90;74.20
47310;DHT22;33046;52.270;6.832;2023-08-21T17:02:21;27.80;74.70
47310;DHT22;33046;52.270;6.832;2023-08-21T17:04:27;27.80;75.40
47310;DHT22;33046;52.270;6.832;2023-08-21T17:06:34;27.70;75.90
47310;DHT22;33046;52.270;6.832;2023-08-21T17:08:43;27.70;75.80
47310;DHT22;33046;52.270;6.832;2023-08-21T17:10:49;27.60;76.50
47310;DHT22;33046;52.270;6.832;2023-08-21T17:12:56;27.60;76.70
47310;DHT22;33046;52.270;6.832;2023-08-21T17:15:04;27.60;77.20
47310;DHT22;33046;52.270;6.832;2023-08-21T17:17:12;27.50;76.80
47310;DHT22;33046;52.270;6.832;2023-08-21T17:19:18;27.50;77.10
47310;DHT22;33046;52.270;6.832;2023-08-21T17:21:25;27.40;77.10
47310;DHT22;33046;52.270;6.832;2023-08-21T17:23:33;27.40;77.70
47310;DHT22;33046;52.270;6.832;2023-08-21T17:25:42;27.30;78.20
47310;DHT22;33046;52.270;6.832;2023-08-21T17:27:49;27.30;79.40
47310;DHT22;33046;52.270;6.832;2023-08-21T17:29:55;27.30;79.90
47310;DHT22;33046;52.270;6.832;2023-08-21T17:32:09;27.30;80.60
47310;DHT22;33046;52.270;6.832;2023-08-21T17:34:16;27.20;82.10
47310;DHT22;33046;52.270;6.832;2023-08-21T17:36:23;27.20;82.30
47310;DHT22;33046;52.270;6.832;2023-08-21T17:38:29;27.20;81.90
47310;DHT22;33046;52.270;6.832;2023-08-21T17:40:36;27.10;82.10
47310;DHT22;33046;52.270;6.832;2023-08-21T17:42:45;27.10;82.40
47310;DHT22;33046;52.270;6.832;2023-08-21T17:44:53;27.10;82.50
47310;DHT22;33046;52.270;6.832;2023-08-21T17:47:00;27.00;82.40
47310;DHT22;33046;52.270;6.832;2023-08-21T17:49:07;27.00;83.50
47310;DHT22;33046;52.270;6.832;2023-08-21T17:51:14;27.00;83.70
47310;DHT22;33046;52.270;6.832;2023-08-21T17:53:21;27.00;83.40
47310;DHT22;33046;52.270;6.832;2023-08-21T17:55:28;27.00;83.10
47310;DHT22;33046;52.270;6.832;2023-08-21T17:57:35;27.00;82.60
47310;DHT22;33046;52.270;6.832;2023-08-21T17:59:43;26.90;82.30
47310;DHT22;33046;52.270;6.832;2023-08-21T18:01:50;26.90;82.40
47310;DHT22;33046;52.270;6.832;2023-08-21T18:03:57;26.90;82.70
47310;DHT22;33046;52.270;6.832;2023-08-21T18:06:05;26.90;82.50
47310;DHT22;33046;52.270;6.832;2023-08-21T18:08:12;26.90;82.60
47310;DHT22;33046;52.270;6.832;2023-08-21T18:10:19;26.80;82.40
47310;DHT22;33046;52.270;6.832;2023-08-21T18:12:25;26.80;83.90
47310;DHT22;33046;52.270;6.832;2023-08-21T18:14:33;26.80;85.00
47310;DHT22;33046;52.270;6.832;2023-08-21T18:16:41;26.80;85.90
47310;DHT22;33046;52.270;6.832;2023-08-21T18:18:48;26.70;86.30
47310;DHT22;33046;52.270;6.832;2023-08-21T18:20:55;26.70;86.80
47310;DHT22;33046;52.270;6.832;2023-08-21T18:23:02;26.60;87.10
47310;DHT22;33046;52.270;6.832;2023-08-21T18:25:09;26.60;86.90
47310;DHT22;33046;52.270;6.832;2023-08-21T18:27:16;26.60;86.40
47310;DHT22;33046;52.270;6.832;2023-08-21T18:29:23;26.50;85.60
47310;DHT22;33046;52.270;6.832;2023-08-21T18:31:30;26.50;86.70
47310;DHT22;33046;52.270;6.832;2023-08-21T18:33:38;26.40;87.40
47310;DHT22;33046;52.270;6.832;2023-08-21T18:35:45;26.40;88.30
47310;DHT22;33046;52.270;6.832;2023-08-21T18:37:52;26.30;89.50
47310;DHT22;33046;52.270;6.832;2023-08-21T18:39:58;26.20;89.50
47310;DHT22;33046;52.270;6.832;2023-08-21T18:42:06;26.20;89.00
47310;DHT22;33046;52.270;6.832;2023-08-21T18:44:13;26.10;89.60